Time;durP1;ratioP1;P1;durP2;ratioP2;P2;SDS_P1;SDS_P2;PMS_P1;PMS_P2;Temp;Humidity;BMP_temperature;BMP_pressure;BME280_temperature;BME280_humidity;BME280_pressure;Samples;Min_cycle;Max_cycle;Signal;HPM_P1;HPM_P2
2021/05/11 00:00:41;;;;;;;1.88;0.70;;;13.70;99.90;;;;;;4895173;29;20139;-79
2021/05/11 00:03:07;;;;;;;0.88;0.50;;;13.70;99.90;;;;;;4879615;29;20136;-79
2021/05/11 00:05:38;;;;;;;2.75;0.60;;;13.70;99.90;;;;;;4895000;29;20132;-79
2021/05/11 00:08:10;;;;;;;0.80;0.43;;;13.70;99.90;;;;;;4895351;29;20127;-79
2021/05/11 00:10:41;;;;;;;0.90;0.60;;;13.70;99.90;;;;;;4880082;29;20140;-79
2021/05/11 00:13:12;;;;;;;1.13;0.60;;;13.70;99.90;;;;;;4895183;29;20040;-79
2021/05/11 00:15:43;;;;;;;0.82;0.40;;;13.60;99.90;;;;;;4894981;29;20059;-79
2021/05/11 00:18:14;;;;;;;2.10;0.60;;;13.60;99.90;;;;;;4895270;29;20049;-79
2021/05/11 00:20:46;;;;;;;0.50;0.43;;;13.60;99.90;;;;;;4881168;29;20059;-79
2021/05/11 00:23:17;;;;;;;2.63;0.60;;;13.50;99.90;;;;;;4898851;29;20077;-79
2021/05/11 00:25:43;;;;;;;0.77;0.50;;;13.40;99.90;;;;;;4900015;29;20099;-79
2021/05/11 00:28:09;;;;;;;0.80;0.45;;;13.40;99.90;;;;;;4898850;29;20496;-79
2021/05/11 00:30:35;;;;;;;2.67;0.50;;;13.40;99.90;;;;;;4883193;29;20083;-80
2021/05/11 00:33:02;;;;;;;0.85;0.40;;;13.40;99.90;;;;;;4899936;29;20127;-79
2021/05/11 00:35:28;;;;;;;0.50;0.30;;;13.40;99.90;;;;;;4898585;29;20619;-79
2021/05/11 00:37:54;;;;;;;1.63;0.50;;;13.40;99.90;;;;;;4883085;29;20139;-78
2021/05/11 00:40:20;;;;;;;0.65;0.50;;;13.30;99.90;;;;;;4898610;29;20076;-79
2021/05/11 00:42:47;;;;;;;0.50;0.43;;;13.30;99.90;;;;;;4898474;29;20148;-79
2021/05/11 00:45:14;;;;;;;0.57;0.45;;;13.30;99.90;;;;;;4898591;29;20135;-79
2021/05/11 00:47:40;;;;;;;1.08;0.50;;;13.20;99.90;;;;;;4898628;29;20076;-79
2021/05/11 00:50:07;;;;;;;0.52;0.40;;;13.20;99.90;;;;;;4882891;29;20357;-79
2021/05/11 00:52:40;;;;;;;0.80;0.60;;;13.20;99.90;;;;;;4898700;29;20135;-79
2021/05/11 00:55:07;;;;;;;0.40;0.40;;;13.20;99.90;;;;;;4898496;29;20083;-79
2021/05/11 00:57:38;;;;;;;0.68;0.47;;;13.20;99.90;;;;;;4898746;29;20083;-79
2021/05/11 01:00:08;;;;;;;0.85;0.50;;;13.10;99.90;;;;;;4898179;29;20595;-79
2021/05/11 01:02:39;;;;;;;1.23;0.45;;;13.00;99.90;;;;;;4898423;29;20119;-79
2021/05/11 01:05:06;;;;;;;0.57;0.40;;;13.00;99.90;;;;;;4897842;29;20132;-79
2021/05/11 01:07:38;;;;;;;0.70;0.50;;;12.90;99.90;;;;;;4882355;29;20143;-79
2021/05/11 01:10:09;;;;;;;0.80;0.50;;;12.90;99.90;;;;;;4897886;29;20060;-79
2021/05/11 01:12:35;;;;;;;1.23;0.40;;;12.90;99.90;;;;;;4897889;29;20474;-79
2021/05/11 01:15:07;;;;;;;1.70;0.50;;;12.90;99.90;;;;;;4897655;29;20579;-79
2021/05/11 01:17:36;;;;;;;0.40;0.30;;;12.80;99.90;;;;;;4897799;29;20548;-79
2021/05/11 01:20:14;;;;;;;0.90;0.55;;;12.90;99.90;;;;;;4897543;29;20040;-79
2021/05/11 01:25:20;;;;;;;1.00;0.60;;;12.90;99.90;;;;;;4898400;29;20583;-79
2021/05/11 01:28:55;;;;;;;0.60;0.40;;;12.90;99.90;;;;;;4897078;29;20080;-79
2021/05/11 01:50:26;;;;;;;0.60;0.40;;;12.60;99.90;;;;;;4912994;29;20494;-79
2021/05/11 02:23:23;;;;;;;0.80;0.60;;;12.70;99.90;;;;;;4897876;29;20046;-79
2021/05/11 02:25:49;;;;;;;4.18;0.57;;;12.60;99.90;;;;;;4896715;29;20564;-79
2021/05/11 02:28:21;;;;;;;0.77;0.35;;;12.50;99.90;;;;;;4896437;29;20044;-79
2021/05/11 02:30:52;;;;;;;0.52;0.40;;;12.40;99.90;;;;;;4896704;29;20055;-79
2021/05/11 02:33:20;;;;;;;1.20;0.40;;;12.40;99.90;;;;;;4896506;29;20059;-79
2021/05/11 02:35:46;;;;;;;1.42;0.47;;;12.40;99.90;;;;;;4897621;29;20131;-79
2021/05/11 02:38:18;;;;;;;0.50;0.30;;;12.40;99.90;;;;;;4912340;29;20051;-79
2021/05/11 02:40:44;;;;;;;0.50;0.30;;;12.40;99.90;;;;;;4896163;29;20457;-79
2021/05/11 02:43:19;;;;;;;0.52;0.40;;;12.50;99.90;;;;;;4896825;29;20587;-80
2021/05/11 02:45:50;;;;;;;2.58;0.50;;;12.50;99.90;;;;;;4897498;29;20049;-79
2021/05/11 02:48:21;;;;;;;0.50;0.40;;;12.60;99.90;;;;;;4911945;29;20049;-79
2021/05/11 02:50:47;;;;;;;0.60;0.50;;;12.50;99.90;;;;;;4896354;29;20496;-79
2021/05/11 02:53:14;;;;;;;0.63;0.50;;;12.50;99.90;;;;;;4880505;29;20052;-79
2021/05/11 02:55:40;;;;;;;1.83;0.75;;;12.50;99.90;;;;;;4880515;29;20189;-79
2021/05/11 02:58:06;;;;;;;0.68;0.43;;;12.50;99.90;;;;;;4896041;29;20047;-79
2021/05/11 03:00:32;;;;;;;2.47;0.52;;;12.50;99.90;;;;;;4880577;29;20072;-79
2021/05/11 03:02:59;;;;;;;0.55;0.52;;;12.50;99.90;;;;;;4896019;29;20152;-79
2021/05/11 03:05:30;;;;;;;0.47;0.40;;;12.50;99.90;;;;;;4881064;29;20640;-79
2021/05/11 03:08:01;;;;;;;1.00;0.73;;;12.50;99.90;;;;;;4896124;29;20163;-79
2021/05/11 03:10:33;;;;;;;0.80;0.50;;;12.40;99.90;;;;;;4895921;29;20127;-79
2021/05/11 03:12:59;;;;;;;0.50;0.40;;;12.30;99.90;;;;;;4895748;29;20099;-78
2021/05/11 03:15:30;;;;;;;3.60;0.60;;;12.20;99.90;;;;;;4897005;29;20059;-79
2021/05/11 03:17:56;;;;;;;0.68;0.47;;;12.10;99.90;;;;;;4880338;29;20490;-79
2021/05/11 03:20:27;;;;;;;1.67;0.90;;;12.10;99.90;;;;;;4895895;29;20132;-79
2021/05/11 03:22:54;;;;;;;1.38;0.40;;;12.10;99.90;;;;;;4880179;29;20139;-79
2021/05/11 03:25:20;;;;;;;0.57;0.57;;;12.10;99.90;;;;;;4880083;29;20135;-79
2021/05/11 03:27:51;;;;;;;1.48;0.90;;;12.10;99.90;;;;;;4880882;29;20507;-80
2021/05/11 03:30:18;;;;;;;1.10;0.60;;;12.20;99.90;;;;;;4895565;29;20123;-79
2021/05/11 03:32:49;;;;;;;0.90;0.68;;;12.20;99.90;;;;;;4880556;29;20415;-79
2021/05/11 03:35:15;;;;;;;1.10;0.73;;;12.10;99.90;;;;;;4895404;29;20143;-79
2021/05/11 03:37:41;;;;;;;0.80;0.47;;;12.20;99.90;;;;;;4895478;29;20495;-79
2021/05/11 03:40:09;;;;;;;1.10;0.80;;;12.20;99.90;;;;;;4880151;29;20143;-79
2021/05/11 03:42:51;;;;;;;3.58;0.80;;;12.10;99.90;;;;;;4895619;29;20127;-79
2021/05/11 03:45:19;;;;;;;1.00;0.80;;;12.10;99.90;;;;;;4895699;29;20496;-79
2021/05/11 03:47:47;;;;;;;1.35;0.90;;;12.10;99.90;;;;;;4897093;29;20075;-78
2021/05/11 03:50:19;;;;;;;1.92;1.10;;;12.10;99.90;;;;;;4880670;29;20140;-79
2021/05/11 03:52:51;;;;;;;1.17;0.90;;;12.10;99.90;;;;;;4895480;29;20139;-80
2021/05/11 03:55:18;;;;;;;1.80;0.85;;;12.10;99.90;;;;;;4879916;29;20135;-79
2021/05/11 03:57:50;;;;;;;1.15;1.05;;;12.10;99.90;;;;;;4894610;29;20143;-79
2021/05/11 04:00:22;;;;;;;1.52;1.00;;;12.10;99.90;;;;;;4895798;29;20120;-79
2021/05/11 04:02:48;;;;;;;1.15;0.82;;;12.10;99.90;;;;;;4879222;29;20097;-79
2021/05/11 04:05:21;;;;;;;1.35;0.90;;;12.10;99.90;;;;;;4879724;29;20076;-79
2021/05/11 04:07:57;;;;;;;2.08;0.93;;;12.00;99.90;;;;;;4910339;29;20068;-79
2021/05/11 04:18:29;;;;;;;1.10;0.80;;;11.80;99.90;;;;;;4906543;29;20138;-82
2021/05/11 04:21:01;;;;;;;1.15;0.80;;;11.80;99.90;;;;;;4892104;29;20049;-82
2021/05/11 04:23:27;;;;;;;1.77;0.95;;;11.90;99.90;;;;;;4891990;29;20083;-82
2021/05/11 04:25:54;;;;;;;0.98;0.85;;;11.90;99.90;;;;;;4905513;29;20075;-82
2021/05/11 04:28:27;;;;;;;1.40;1.15;;;11.90;99.90;;;;;;4897377;29;20136;-83
2021/05/11 04:31:00;;;;;;;1.15;0.95;;;11.90;99.90;;;;;;4926326;29;20139;-83
2021/05/11 04:33:26;;;;;;;1.00;0.88;;;11.90;99.90;;;;;;4945542;29;20055;-82
2021/05/11 04:35:53;;;;;;;2.80;1.10;;;11.90;99.90;;;;;;4946293;29;20055;-81
2021/05/11 04:38:22;;;;;;;1.00;0.75;;;11.90;99.90;;;;;;4930695;29;20068;-82
2021/05/11 04:40:49;;;;;;;1.77;1.08;;;11.90;99.90;;;;;;4930488;29;20052;-82
2021/05/11 04:43:17;;;;;;;1.00;0.90;;;12.00;99.90;;;;;;4946634;29;20040;-83
2021/05/11 04:45:45;;;;;;;1.48;0.85;;;12.00;99.90;;;;;;4946353;29;20039;-81
2021/05/11 04:48:12;;;;;;;1.80;1.00;;;12.00;99.90;;;;;;4931091;29;20075;-82
2021/05/11 04:50:43;;;;;;;1.48;1.13;;;12.10;99.90;;;;;;4946282;29;20099;-82
2021/05/11 04:53:10;;;;;;;1.55;1.00;;;12.10;99.90;;;;;;4929963;29;20052;-82
2021/05/11 04:55:37;;;;;;;1.10;0.90;;;12.10;99.90;;;;;;4920849;29;20048;-80
2021/05/11 04:58:09;;;;;;;0.90;0.80;;;12.10;99.90;;;;;;4920015;29;20128;-79
2021/05/11 05:00:41;;;;;;;1.75;1.20;;;12.20;99.90;;;;;;4919677;29;20119;-79
2021/05/11 05:03:13;;;;;;;2.80;1.00;;;12.20;99.90;;;;;;4897240;29;20064;-80
2021/05/11 05:05:39;;;;;;;3.08;1.60;;;12.20;99.90;;;;;;4881417;29;20048;-80
2021/05/11 05:08:06;;;;;;;1.88;0.90;;;12.20;99.90;;;;;;4884706;29;20103;-80
2021/05/11 05:10:38;;;;;;;1.77;1.15;;;12.30;99.90;;;;;;4900169;29;20147;-79
2021/05/11 05:13:16;;;;;;;2.35;1.40;;;12.40;99.90;;;;;;4900532;29;20048;-80
2021/05/11 05:15:43;;;;;;;1.83;1.40;;;12.50;99.90;;;;;;4886659;29;20108;-79
2021/05/11 05:18:15;;;;;;;2.13;1.33;;;12.50;99.90;;;;;;4883677;29;20112;-80
2021/05/11 05:20:49;;;;;;;1.73;1.52;;;12.60;99.90;;;;;;4899337;29;20040;-79
2021/05/11 05:23:27;;;;;;;2.75;1.58;;;12.70;99.90;;;;;;4898163;29;20131;-79
2021/05/11 05:26:00;;;;;;;1.60;1.23;;;12.80;99.90;;;;;;4898274;29;20096;-79
2021/05/11 05:28:27;;;;;;;1.67;1.20;;;12.80;99.90;;;;;;4882866;29;20151;-79
2021/05/11 05:30:54;;;;;;;1.70;1.30;;;12.90;99.90;;;;;;4898370;29;20080;-79
2021/05/11 05:33:30;;;;;;;1.52;1.40;;;13.00;99.90;;;;;;4887471;29;20472;-79
2021/05/11 05:35:57;;;;;;;3.20;1.50;;;13.00;99.90;;;;;;4900221;29;20128;-75
2021/05/11 05:38:26;;;;;;;2.08;1.35;;;13.10;99.90;;;;;;4900193;29;20055;-75
2021/05/11 05:40:59;;;;;;;2.10;1.20;;;13.10;99.90;;;;;;4915439;29;20563;-75
2021/05/11 05:43:26;;;;;;;1.35;1.20;;;13.20;99.90;;;;;;4916200;29;20131;-78
2021/05/11 05:45:58;;;;;;;3.30;1.35;;;13.20;99.90;;;;;;4910747;29;20524;-75
2021/05/11 05:48:25;;;;;;;1.35;1.10;;;13.30;99.90;;;;;;4915000;29;20095;-75
2021/05/11 05:50:55;;;;;;;1.65;1.30;;;13.30;99.90;;;;;;4915745;29;20063;-77
2021/05/11 05:53:34;;;;;;;1.80;1.30;;;13.40;99.90;;;;;;4914883;29;20050;-75
2021/05/11 05:56:08;;;;;;;5.63;1.38;;;13.40;99.90;;;;;;4909386;29;20491;-75
2021/05/11 05:58:35;;;;;;;1.63;1.30;;;13.50;99.90;;;;;;4887087;29;20095;-76
2021/05/11 06:01:07;;;;;;;2.53;1.65;;;13.50;99.90;;;;;;4915657;29;20076;-75
2021/05/11 06:03:50;;;;;;;1.83;1.50;;;13.60;99.90;;;;;;4902315;29;20216;-74
2021/05/11 06:06:21;;;;;;;3.10;1.37;;;13.60;99.90;;;;;;4894735;29;20139;-75
2021/05/11 06:08:54;;;;;;;3.10;1.65;;;13.70;99.90;;;;;;4913189;29;20741;-77
2021/05/11 06:14:12;;;;;;;1.55;1.23;;;13.90;99.90;;;;;;4896156;29;20075;-75
2021/05/11 06:19:24;;;;;;;2.47;1.25;;;14.00;99.90;;;;;;4915320;29;20618;-74
2021/05/11 06:21:55;;;;;;;3.55;1.58;;;14.10;99.90;;;;;;4916025;29;20131;-75
2021/05/11 06:24:27;;;;;;;2.05;1.70;;;14.20;99.90;;;;;;4915295;29;20404;-75
2021/05/11 06:26:54;;;;;;;2.38;2.05;;;14.20;99.90;;;;;;4916339;29;20519;-78
2021/05/11 06:29:28;;;;;;;3.35;2.03;;;14.20;99.90;;;;;;4900328;29;20048;-75
2021/05/11 06:32:00;;;;;;;2.30;1.63;;;14.20;99.90;;;;;;4899748;29;20094;-75
2021/05/11 06:34:26;;;;;;;3.25;1.50;;;14.30;99.90;;;;;;4914574;29;20156;-77
2021/05/11 06:36:53;;;;;;;2.67;1.30;;;14.30;99.90;;;;;;4914507;29;20492;-75
2021/05/11 06:39:20;;;;;;;1.50;1.30;;;14.30;99.90;;;;;;4898831;29;20120;-75
2021/05/11 06:41:50;;;;;;;3.88;2.17;;;14.30;99.90;;;;;;4898760;29;20051;-75
2021/05/11 06:44:30;;;;;;;3.35;2.22;;;14.40;99.90;;;;;;4915068;29;20720;-74
2021/05/11 06:53:09;;;;;;;2.20;1.65;;;14.40;99.90;;;;;;4914446;29;20483;-76
2021/05/11 06:55:18;;;;;;;1.52;1.30;;;14.50;99.90;;;;;;4907512;29;20052;-75
2021/05/11 06:57:50;;;;;;;1.75;1.30;;;14.50;99.90;;;;;;4915884;29;20067;-76
2021/05/11 07:00:22;;;;;;;3.47;1.33;;;14.50;99.90;;;;;;4915188;29;20217;-74
2021/05/11 07:02:54;;;;;;;2.03;1.55;;;14.50;99.90;;;;;;4914245;29;20143;-75
2021/05/11 07:05:21;;;;;;;2.00;1.67;;;14.50;99.90;;;;;;4898420;29;20099;-75
2021/05/11 07:08:26;;;;;;;2.63;1.92;;;14.60;99.90;;;;;;4914182;29;20048;-77
2021/05/11 07:10:53;;;;;;;1.80;1.63;;;14.60;99.90;;;;;;4913739;29;20151;-75
2021/05/11 07:13:24;;;;;;;1.70;1.38;;;14.70;99.90;;;;;;4899407;29;20087;-74
2021/05/11 07:15:56;;;;;;;1.60;1.40;;;14.80;99.90;;;;;;4914050;29;20127;-75
2021/05/11 07:18:28;;;;;;;1.80;1.42;;;14.80;99.90;;;;;;4895267;29;20135;-75
2021/05/11 07:21:00;;;;;;;2.13;1.85;;;14.80;99.90;;;;;;4887072;29;20143;-74
2021/05/11 07:23:32;;;;;;;1.95;1.60;;;14.90;99.90;;;;;;4933264;29;20040;-78
2021/05/11 07:31:55;;;;;;;1.45;1.35;;;15.10;99.90;;;;;;4841003;29;20079;-75
2021/05/11 07:34:22;;;;;;;2.60;1.52;;;15.20;99.90;;;;;;4841876;29;20105;-77
2021/05/11 07:36:54;;;;;;;4.00;3.70;;;15.20;99.90;;;;;;4868522;29;20044;-78
2021/05/11 07:39:26;;;;;;;2.42;1.83;;;15.30;99.90;;;;;;4896239;29;20076;-73
2021/05/11 07:41:58;;;;;;;3.10;1.90;;;15.30;99.90;;;;;;4894249;29;20049;-75
2021/05/11 07:44:24;;;;;;;2.80;1.58;;;15.30;99.90;;;;;;4878370;29;20704;-78
2021/05/11 07:56:30;;;;;;;2.03;1.40;;;15.40;99.90;;;;;;4894085;29;20088;-80
2021/05/11 08:17:39;;;;;;;2.30;1.60;;;15.50;99.90;;;;;;4917909;29;20066;-78
2021/05/11 08:20:20;;;;;;;2.20;1.48;;;15.60;99.90;;;;;;4897953;29;20174;-78
2021/05/11 08:28:11;;;;;;;3.28;1.65;;;15.70;99.90;;;;;;4913417;29;20048;-78
2021/05/11 08:30:43;;;;;;;3.20;1.90;;;15.70;99.90;;;;;;4913148;29;20044;-77
2021/05/11 08:33:10;;;;;;;1.83;1.60;;;15.70;99.90;;;;;;4914035;29;20123;-77
2021/05/11 08:35:36;;;;;;;2.97;2.20;;;15.70;99.90;;;;;;4897418;29;20075;-76
2021/05/11 08:38:08;;;;;;;2.13;1.92;;;15.70;99.90;;;;;;4914143;29;20050;-76
2021/05/11 08:40:40;;;;;;;4.47;1.90;;;15.70;99.90;;;;;;4912752;29;20063;-77
2021/05/11 08:43:45;;;;;;;2.35;2.10;;;15.80;99.90;;;;;;4901194;29;20855;-76
2021/05/11 08:46:13;;;;;;;4.47;2.20;;;15.90;99.90;;;;;;4860709;29;20577;-76
2021/05/11 08:48:46;;;;;;;2.53;2.33;;;16.00;99.90;;;;;;4916863;29;20562;-76
2021/05/11 08:51:33;;;;;;;3.90;2.15;;;16.00;99.90;;;;;;4901503;29;20054;-76
2021/05/11 09:32:59;;;;;;;3.42;3.13;;;16.90;99.90;;;;;;4915611;29;20055;-78
2021/05/11 10:47:01;;;;;;;5.47;4.80;;;16.90;99.90;;;;;;4904676;29;20051;-82
2021/05/11 10:49:39;;;;;;;6.05;5.45;;;16.80;99.90;;;;;;4900382;29;20788;-78
2021/05/11 10:52:08;;;;;;;7.40;5.07;;;16.80;99.90;;;;;;4899346;29;20154;-79
2021/05/11 10:54:58;;;;;;;7.38;5.32;;;16.70;99.90;;;;;;4916875;29;20130;-79
2021/05/11 11:00:24;;;;;;;8.18;5.43;;;16.90;99.90;;;;;;4915528;29;20455;-81
2021/05/11 11:05:57;;;;;;;7.07;6.38;;;17.00;99.90;;;;;;4901799;29;20391;-78
2021/05/11 11:08:42;;;;;;;6.22;5.15;;;17.20;99.90;;;;;;4905322;29;20051;-79
2021/05/11 11:11:14;;;;;;;6.28;5.68;;;17.20;99.90;;;;;;4909130;29;20043;-79
2021/05/11 11:13:53;;;;;;;6.45;5.80;;;17.30;99.90;;;;;;4890356;29;20050;-79
2021/05/11 11:16:25;;;;;;;5.78;5.28;;;17.20;99.90;;;;;;4900321;29;20136;-79
2021/05/11 11:19:11;;;;;;;6.55;5.05;;;17.20;99.90;;;;;;4916691;29;20050;-79
2021/05/11 11:24:32;;;;;;;9.30;4.82;;;17.10;99.90;;;;;;4901102;29;20044;-81
2021/05/11 11:27:04;;;;;;;11.82;5.15;;;17.00;99.90;;;;;;4881841;29;20524;-81
2021/05/11 11:29:36;;;;;;;9.45;5.70;;;17.00;99.90;;;;;;4916348;29;20435;-80
2021/05/11 11:32:08;;;;;;;13.27;10.18;;;16.90;99.90;;;;;;4907652;29;20056;-81
2021/05/11 11:34:40;;;;;;;12.10;11.10;;;16.90;99.90;;;;;;4903986;29;20068;-79
2021/05/11 11:37:15;;;;;;;6.43;5.82;;;16.80;99.90;;;;;;4920489;29;20127;-79
2021/05/11 11:39:47;;;;;;;9.63;8.77;;;16.80;99.90;;;;;;4904144;29;20063;-79
2021/05/11 11:42:26;;;;;;;23.35;21.33;;;16.80;99.90;;;;;;4903005;29;20052;-80
2021/05/11 11:44:59;;;;;;;14.30;12.88;;;16.70;99.90;;;;;;4903224;29;20060;-79
2021/05/11 11:47:41;;;;;;;6.38;5.78;;;16.70;99.90;;;;;;4899776;29;20053;-79
2021/05/11 11:50:14;;;;;;;9.07;6.13;;;16.70;99.90;;;;;;4884509;29;20112;-79
2021/05/11 11:53:03;;;;;;;;;;;16.70;99.90;;;;;;4906193;29;20120;-79
2021/05/11 11:58:23;;;;;;;8.18;6.35;;;16.80;99.90;;;;;;4938899;29;20079;-79
2021/05/11 12:00:50;;;;;;;10.55;7.10;;;16.80;99.90;;;;;;4915127;29;20072;-79
2021/05/11 12:03:23;;;;;;;7.55;6.78;;;16.90;99.90;;;;;;4918428;29;20070;-78
2021/05/11 12:05:58;;;;;;;6.95;6.13;;;16.80;99.90;;;;;;4910662;29;20072;-79
2021/05/11 12:08:30;;;;;;;7.90;7.10;;;16.90;99.90;;;;;;4892312;29;20076;-80
2021/05/11 12:11:00;;;;;;;8.93;7.90;;;16.90;99.90;;;;;;4909350;29;20104;-79
2021/05/11 12:13:36;;;;;;;9.00;6.82;;;16.90;99.90;;;;;;4883953;29;20072;-79
2021/05/11 12:16:18;;;;;;;7.43;6.63;;;16.80;99.90;;;;;;4900669;29;20619;-79
2021/05/11 12:19:09;;;;;;;10.00;8.68;;;16.80;99.90;;;;;;4905723;29;20142;-79
2021/05/11 12:22:03;;;;;;;9.82;8.82;;;16.70;99.90;;;;;;4910822;29;20064;-78
2021/05/11 12:24:36;;;;;;;;;;;16.70;99.90;;;;;;4918764;29;20131;-76
2021/05/11 12:27:19;;;;;;;13.02;11.70;;;16.70;99.90;;;;;;4917115;29;20021;-76
2021/05/11 12:30:06;;;;;;;9.18;8.18;;;16.60;99.90;;;;;;4902139;29;20048;-76
2021/05/11 12:32:38;;;;;;;8.57;7.68;;;16.50;99.90;;;;;;4917263;29;20492;-77
2021/05/11 12:35:11;;;;;;;11.43;7.88;;;16.50;99.90;;;;;;4909701;29;20064;-76
2021/05/11 12:38:00;;;;;;;9.38;8.50;;;16.40;99.90;;;;;;4895837;29;20044;-76
2021/05/11 12:41:08;;;;;;;9.73;8.25;;;16.40;99.90;;;;;;4894008;29;20089;-77
2021/05/11 12:43:48;;;;;;;10.68;7.47;;;16.40;99.90;;;;;;4897469;29;20116;-76
2021/05/11 12:46:17;;;;;;;8.30;7.50;;;16.40;99.90;;;;;;4882175;29;20077;-77
2021/05/11 12:48:56;;;;;;;9.48;7.40;;;16.40;99.90;;;;;;4898599;29;20560;-78
2021/05/11 12:51:40;;;;;;;10.32;7.60;;;16.40;99.90;;;;;;4897692;29;20052;-77
2021/05/11 12:54:24;;;;;;;13.10;8.10;;;16.30;99.90;;;;;;4883487;29;20045;-76
2021/05/11 12:57:02;;;;;;;10.57;8.00;;;16.30;99.90;;;;;;4903254;29;20666;-76
2021/05/11 13:02:51;;;;;;;11.95;8.50;;;16.20;99.90;;;;;;4916405;29;20094;-81
2021/05/11 13:26:32;;;;;;;11.50;6.13;;;16.20;99.90;;;;;;4898099;29;20128;-77
2021/05/11 13:29:06;;;;;;;6.45;5.80;;;16.30;99.90;;;;;;4894929;29;20108;-76
2021/05/11 13:36:35;;;;;;;8.65;6.20;;;16.40;99.90;;;;;;4898017;29;20495;-76
2021/05/11 13:39:04;;;;;;;9.00;7.38;;;16.40;99.90;;;;;;4897283;29;20116;-76
2021/05/11 13:41:36;;;;;;;;;;;16.30;99.90;;;;;;4897465;29;20076;-76
2021/05/11 13:44:08;;;;;;;12.38;9.75;;;16.20;99.90;;;;;;4882044;29;20401;-76
2021/05/11 13:46:34;;;;;;;16.73;9.90;;;16.10;99.90;;;;;;4902189;29;20044;-76
2021/05/11 13:49:06;;;;;;;12.85;9.70;;;16.00;99.90;;;;;;4915977;29;20040;-76
2021/05/11 13:51:33;;;;;;;12.45;9.50;;;15.90;99.90;;;;;;4915724;29;20070;-76
2021/05/11 13:54:02;;;;;;;13.27;10.23;;;15.80;99.90;;;;;;4896876;29;20077;-77
2021/05/11 14:04:47;;;;;;;16.67;12.07;;;15.30;99.90;;;;;;4912324;29;20579;-78
2021/05/11 14:07:19;;;;;;;15.38;10.85;;;15.30;99.90;;;;;;4911345;29;20767;-76
2021/05/11 14:09:51;;;;;;;15.55;13.15;;;15.30;99.90;;;;;;4896618;29;20147;-76
2021/05/11 14:12:18;;;;;;;29.13;21.40;;;15.30;99.90;;;;;;4896454;29;20396;-77
2021/05/11 14:14:50;;;;;;;21.83;16.65;;;15.30;99.90;;;;;;4897731;29;20050;-76
2021/05/11 14:17:21;;;;;;;16.38;12.63;;;15.40;99.90;;;;;;4908044;29;20052;-76
2021/05/11 14:19:53;;;;;;;26.25;20.85;;;15.40;99.90;;;;;;4897922;29;20054;-76
2021/05/11 14:22:26;;;;;;;18.13;14.65;;;15.30;99.90;;;;;;4900071;29;20048;-77
2021/05/11 14:24:57;;;;;;;21.13;15.47;;;15.30;99.90;;;;;;4900118;29;20047;-76
2021/05/11 14:27:29;;;;;;;15.68;12.68;;;15.40;99.90;;;;;;4914491;29;20063;-77
2021/05/11 14:30:01;;;;;;;20.67;15.40;;;15.40;99.90;;;;;;4899986;29;20067;-78
2021/05/11 14:32:28;;;;;;;16.90;12.65;;;15.40;99.90;;;;;;4915929;29;20071;-76
2021/05/11 14:34:54;;;;;;;24.20;16.95;;;15.30;99.90;;;;;;4914919;29;20078;-77
2021/05/11 14:37:26;;;;;;;18.58;14.82;;;15.30;99.90;;;;;;4914765;29;20119;-77
2021/05/11 14:39:58;;;;;;;18.52;12.68;;;15.40;99.90;;;;;;4886566;29;20067;-77
2021/05/11 14:42:25;;;;;;;17.95;14.25;;;15.40;99.90;;;;;;4897081;29;20040;-77
2021/05/11 14:44:56;;;;;;;15.73;12.02;;;15.40;99.90;;;;;;4895648;29;20095;-76
2021/05/11 14:47:23;;;;;;;16.02;11.68;;;15.40;99.90;;;;;;4895576;29;20045;-76
2021/05/11 14:49:55;;;;;;;14.00;10.77;;;15.40;99.90;;;;;;4897150;29;20508;-76
2021/05/11 14:52:27;;;;;;;13.88;12.02;;;15.30;99.90;;;;;;4896917;29;20069;-77
2021/05/11 14:54:59;;;;;;;13.45;11.05;;;15.20;99.90;;;;;;4895603;29;20496;-76
2021/05/11 14:57:25;;;;;;;13.80;11.55;;;15.10;99.90;;;;;;4895394;29;20143;-80
2021/05/11 14:59:57;;;;;;;14.98;12.43;;;15.00;99.90;;;;;;4897217;29;20538;-77
2021/05/11 15:02:29;;;;;;;16.77;12.43;;;15.00;99.90;;;;;;4896966;29;20045;-77
2021/05/11 15:04:56;;;;;;;16.38;12.27;;;15.00;99.90;;;;;;4895521;29;20051;-76
2021/05/11 15:07:22;;;;;;;16.25;13.05;;;15.10;99.90;;;;;;4895480;29;20044;-76
2021/05/11 15:09:49;;;;;;;19.08;13.30;;;15.00;99.90;;;;;;4894770;29;20059;-78
2021/05/11 15:12:21;;;;;;;17.48;13.85;;;15.00;99.90;;;;;;4895822;29;20045;-76
2021/05/11 15:14:53;;;;;;;20.42;15.23;;;15.00;99.90;;;;;;4896829;29;20119;-76
2021/05/11 15:19:54;;;;;;;17.70;13.52;;;15.00;99.90;;;;;;4895382;29;20604;-77
2021/05/11 15:22:27;;;;;;;16.17;12.75;;;14.90;99.90;;;;;;4895452;29;20045;-78
2021/05/11 15:24:59;;;;;;;16.75;13.45;;;14.80;99.90;;;;;;4880519;29;20047;-77
2021/05/11 15:27:28;;;;;;;24.70;18.77;;;14.70;99.90;;;;;;4881219;29;20135;-76
2021/05/11 15:30:02;;;;;;;16.92;13.60;;;14.70;99.90;;;;;;4901682;29;20045;-75
2021/05/11 15:32:58;;;;;;;19.75;15.82;;;14.60;99.90;;;;;;4893550;29;20056;-75
2021/05/11 15:35:27;;;;;;;25.83;17.45;;;14.50;99.90;;;;;;4894744;29;20059;-76
2021/05/11 15:38:02;;;;;;;17.98;13.68;;;14.40;99.90;;;;;;4914260;29;20392;-76
2021/05/11 15:40:40;;;;;;;12.77;10.13;;;14.40;99.90;;;;;;4913867;29;20123;-76
2021/05/11 15:43:08;;;;;;;12.88;9.93;;;14.40;99.90;;;;;;4913652;29;20066;-76
2021/05/11 15:45:40;;;;;;;13.85;9.60;;;14.40;99.90;;;;;;4898588;29;20139;-76
2021/05/11 15:48:10;;;;;;;10.88;9.68;;;14.20;99.90;;;;;;4894592;29;20630;-76
2021/05/11 15:50:44;;;;;;;12.98;9.55;;;14.20;99.90;;;;;;4894479;29;20051;-77
2021/05/11 15:53:16;;;;;;;14.00;11.25;;;14.20;99.90;;;;;;4894833;29;20068;-76
2021/05/11 15:55:44;;;;;;;12.70;9.52;;;14.10;99.90;;;;;;4895856;29;20135;-78
2021/05/11 15:58:13;;;;;;;12.43;9.80;;;14.10;99.90;;;;;;4894737;29;20072;-78
2021/05/11 16:00:53;;;;;;;23.45;11.20;;;14.10;99.90;;;;;;4879833;29;20045;-78
2021/05/11 16:03:25;;;;;;;14.27;10.25;;;14.10;99.90;;;;;;4895859;29;20040;-78
2021/05/11 16:05:56;;;;;;;15.57;10.77;;;14.00;99.90;;;;;;4894831;29;20044;-78
2021/05/11 16:08:25;;;;;;;14.32;11.32;;;13.90;99.90;;;;;;4878972;29;20135;-77
2021/05/11 16:11:00;;;;;;;12.95;10.07;;;13.90;99.90;;;;;;4897463;29;20139;-75
2021/05/11 16:13:35;;;;;;;12.20;10.60;;;13.90;99.90;;;;;;4895938;29;20124;-79
2021/05/11 16:16:02;;;;;;;12.93;10.13;;;14.00;99.90;;;;;;4893521;29;20128;-78
2021/05/11 16:18:34;;;;;;;12.50;10.93;;;13.90;99.90;;;;;;4879583;29;20049;-79
2021/05/11 16:21:00;;;;;;;12.00;10.27;;;13.80;99.90;;;;;;4893533;29;20112;-79
2021/05/11 16:23:27;;;;;;;13.43;11.63;;;13.70;99.90;;;;;;4878873;29;20174;-77
2021/05/11 16:25:59;;;;;;;17.35;12.63;;;13.70;99.90;;;;;;4895347;29;20465;-78
2021/05/11 16:28:31;;;;;;;13.23;11.13;;;13.70;99.90;;;;;;4895071;29;20393;-77
2021/05/11 16:31:03;;;;;;;13.25;11.23;;;13.60;99.90;;;;;;4895870;29;20051;-77
2021/05/11 16:33:36;;;;;;;16.52;12.45;;;13.60;99.90;;;;;;4894666;29;20045;-76
2021/05/11 16:36:03;;;;;;;14.05;11.82;;;13.60;99.90;;;;;;4894754;29;20128;-77
2021/05/11 16:38:35;;;;;;;18.08;15.73;;;13.50;99.90;;;;;;4894039;29;20079;-77
2021/05/11 16:41:02;;;;;;;14.02;12.10;;;13.50;99.90;;;;;;4907340;29;20138;-76
2021/05/11 16:43:28;;;;;;;14.25;11.32;;;13.50;99.90;;;;;;4903585;29;20496;-76
2021/05/11 16:45:56;;;;;;;14.00;11.13;;;13.50;99.90;;;;;;4903340;29;20496;-76
2021/05/11 16:48:29;;;;;;;13.48;10.70;;;13.50;99.90;;;;;;4892703;29;20075;-76
2021/05/11 16:50:56;;;;;;;17.85;16.00;;;13.50;99.90;;;;;;4879185;29;20080;-79
2021/05/11 16:53:23;;;;;;;14.95;12.48;;;13.40;99.90;;;;;;4894439;29;20052;-76
2021/05/11 16:55:49;;;;;;;15.35;13.10;;;13.40;99.90;;;;;;4902343;29;20045;-76
2021/05/11 16:58:16;;;;;;;17.90;14.15;;;13.30;99.90;;;;;;4893672;29;20136;-76
2021/05/11 17:00:44;;;;;;;16.13;11.93;;;13.30;99.90;;;;;;4894667;29;20087;-76
2021/05/11 17:03:11;;;;;;;15.40;11.88;;;13.30;99.90;;;;;;4902331;29;20040;-76
2021/05/11 17:05:43;;;;;;;14.07;10.82;;;13.30;99.90;;;;;;4882912;29;20049;-76
2021/05/11 17:08:15;;;;;;;14.40;10.60;;;13.30;99.90;;;;;;4897726;29;20518;-76
2021/05/11 17:10:42;;;;;;;11.68;9.85;;;13.30;99.90;;;;;;4887510;29;20056;-76
2021/05/11 17:13:11;;;;;;;12.98;10.05;;;13.30;99.90;;;;;;4901447;29;20054;-76
2021/05/11 17:15:43;;;;;;;16.42;10.77;;;13.30;99.90;;;;;;4916788;29;20052;-76
2021/05/11 17:18:15;;;;;;;13.80;10.98;;;13.40;99.90;;;;;;4916839;29;20435;-78
2021/05/11 17:20:42;;;;;;;14.18;10.88;;;13.40;99.90;;;;;;4909115;29;20100;-77
2021/05/11 17:23:09;;;;;;;13.02;10.80;;;13.40;99.90;;;;;;4883398;29;20064;-76
2021/05/11 17:25:43;;;;;;;14.32;11.38;;;13.40;99.90;;;;;;4910747;29;20465;-76
2021/05/11 17:28:11;;;;;;;13.88;11.77;;;13.40;99.90;;;;;;4897716;29;20143;-77
2021/05/11 17:30:39;;;;;;;15.25;11.95;;;13.40;99.90;;;;;;4895277;29;20056;-77
2021/05/11 17:33:07;;;;;;;14.75;11.90;;;13.40;99.90;;;;;;4915315;29;20127;-76
2021/05/11 17:35:39;;;;;;;16.83;12.90;;;13.40;99.90;;;;;;4892770;29;20048;-76